This is the latest recevied weather packets stored in our database for station/object eb1ayw-13. If no packets are shown the sender has not sent any weather packets the latest 10 day(s).
| Time | Temp. | Humidity | Pressure | Rain* | Wind** | Luminosity | Snow |
|---|---|---|---|---|---|---|---|
| 1778111269 | 35.56° C | 20% | 1002.8 hPa | - | - | - | - |
| 1778110669 | 35° C | 21% | 1003.1 hPa | - | - | - | - |
| 1778110069 | 34.44° C | 21% | 1003.2 hPa | - | - | - | - |
| 1778109469 | 41.11° C | 15% | 1001.5 hPa | - | - | - | - |
| 1778108869 | 37.78° C | 17% | 1002.4 hPa | - | - | - | - |
| 1778108269 | 39.44° C | 16% | 1001.6 hPa | - | - | - | - |
| 1778107669 | 40° C | 16% | 1001.6 hPa | - | - | - | - |
| 1778107069 | 39.44° C | 16% | 1001.6 hPa | - | - | - | - |
| 1778106469 | 35.56° C | 18% | 1002.6 hPa | - | - | - | - |
| 1778105869 | 38.89° C | 16% | 1001.7 hPa | - | - | - | - |
| 1778105269 | 34.44° C | 20% | 1002.9 hPa | - | - | - | - |
| 1778104669 | 36.11° C | 18% | 1002.4 hPa | - | - | - | - |
| 1778104069 | 36.11° C | 18% | 1002.4 hPa | - | - | - | - |
| 1778103469 | 35° C | 19% | 1002.6 hPa | - | - | - | - |
| 1778102869 | 35° C | 18% | 1002.6 hPa | - | - | - | - |
| 1778102269 | 43.33° C | 12% | 1000.3 hPa | - | - | - | - |
| 1778101669 | 45° C | 11% | 999.8 hPa | - | - | - | - |
| 1778101069 | 43.33° C | 11% | 1000 hPa | - | - | - | - |
| 1778100469 | 44.44° C | 11% | 999.8 hPa | - | - | - | - |
| 1778099869 | 45.56° C | 11% | 999.5 hPa | - | - | - | - |
| 1778099269 | 44.44° C | 11% | 999.7 hPa | - | - | - | - |
| 1778098669 | 43.33° C | 11% | 999.9 hPa | - | - | - | - |
| 1778098069 | 44.44° C | 11% | 999.6 hPa | - | - | - | - |
| 1778097469 | 42.78° C | 12% | 1000 hPa | - | - | - | - |
| 1778096869 | 41.11° C | 13% | 1000.3 hPa | - | - | - | - |
* Rain since midnight (hover to see other rain measurements)
** Current wind speed in m/s (hover to see current wind gust speed)